Time;durP1;ratioP1;P1;durP2;ratioP2;P2;SDS_P1;SDS_P2;PMS_P1;PMS_P2;Temp;Humidity;BMP_temperature;BMP_pressure;BME280_temperature;BME280_humidity;BME280_pressure;Samples;Min_cycle;Max_cycle;Signal;HPM_P1;HPM_P2
2023/03/18 00:01:03;;;;;;;6.47;2.97;;;10.50;99.90;;;;;;5074956;28;20203;-47
2023/03/18 00:03:33;;;;;;;8.60;3.23;;;10.40;99.90;;;;;;5074770;28;20164;-48
2023/03/18 00:06:08;;;;;;;7.40;2.70;;;10.50;99.90;;;;;;5074726;28;20172;-50
2023/03/18 00:08:34;;;;;;;5.60;2.70;;;10.50;99.90;;;;;;5074913;28;20588;-47
2023/03/18 00:11:00;;;;;;;4.60;2.73;;;10.40;99.90;;;;;;5074618;28;20191;-48
2023/03/18 00:13:26;;;;;;;6.00;2.80;;;10.40;99.90;;;;;;5074834;28;20180;-48
2023/03/18 00:15:52;;;;;;;5.97;3.13;;;10.40;99.90;;;;;;5074491;28;20684;-48
2023/03/18 00:18:18;;;;;;;7.63;2.70;;;10.40;99.90;;;;;;5074403;28;20274;-48
2023/03/18 00:20:44;;;;;;;7.10;2.60;;;10.30;99.90;;;;;;5074429;28;20278;-49
2023/03/18 00:23:10;;;;;;;8.33;3.60;;;10.30;99.90;;;;;;5073194;28;20222;-48
2023/03/18 00:25:37;;;;;;;4.10;2.30;;;10.30;99.90;;;;;;5074646;28;20202;-49
2023/03/18 00:28:05;;;;;;;7.43;2.77;;;10.30;99.90;;;;;;5074352;28;20655;-49
2023/03/18 00:30:31;;;;;;;5.13;2.67;;;10.30;99.90;;;;;;5074542;28;20199;-49
2023/03/18 00:32:57;;;;;;;7.30;2.70;;;10.30;99.90;;;;;;5074754;28;20180;-47
2023/03/18 00:35:26;;;;;;;7.73;2.90;;;10.20;99.90;;;;;;5074319;28;20562;-48
2023/03/18 00:37:54;;;;;;;7.20;3.30;;;10.20;99.90;;;;;;5074275;28;20189;-48
2023/03/18 00:40:26;;;;;;;5.47;3.17;;;10.20;99.90;;;;;;5074211;28;20207;-48
2023/03/18 00:42:56;;;;;;;4.20;2.90;;;10.20;99.90;;;;;;5073952;28;20623;-48
2023/03/18 00:45:23;;;;;;;10.13;3.00;;;10.20;99.90;;;;;;5074261;28;20175;-48
2023/03/18 00:47:49;;;;;;;8.73;3.17;;;10.20;99.90;;;;;;5074067;28;20240;-48
2023/03/18 00:50:15;;;;;;;5.30;3.07;;;10.20;99.90;;;;;;5073865;28;20218;-48
2023/03/18 00:52:42;;;;;;;8.67;3.27;;;10.10;99.90;;;;;;5073912;28;20182;-48
2023/03/18 00:55:09;;;;;;;7.43;3.40;;;10.20;99.90;;;;;;5074709;28;20184;-48
2023/03/18 00:57:35;;;;;;;6.93;3.17;;;10.10;99.90;;;;;;5075865;28;20185;-47
2023/03/18 01:00:01;;;;;;;4.97;2.73;;;10.10;99.90;;;;;;5073834;28;20278;-47
2023/03/18 01:02:28;;;;;;;7.10;3.37;;;10.10;99.90;;;;;;5073960;28;20626;-47
2023/03/18 01:04:55;;;;;;;6.93;3.43;;;10.10;99.90;;;;;;5073874;28;20273;-46
2023/03/18 01:07:22;;;;;;;6.47;3.67;;;10.20;99.90;;;;;;5073880;28;20175;-47
2023/03/18 01:09:48;;;;;;;6.03;2.70;;;10.20;99.90;;;;;;5073472;28;20681;-49
2023/03/18 01:12:14;;;;;;;5.10;3.33;;;10.10;99.90;;;;;;5073781;28;20290;-48
2023/03/18 01:14:39;;;;;;;7.27;3.53;;;10.20;99.90;;;;;;5073749;28;20686;-48
2023/03/18 01:17:06;;;;;;;7.00;3.50;;;10.10;99.90;;;;;;5073494;28;20260;-48
2023/03/18 01:19:32;;;;;;;4.17;2.90;;;10.20;99.90;;;;;;5073621;28;20211;-47
2023/03/18 01:21:58;;;;;;;6.47;3.13;;;10.20;99.90;;;;;;5073622;28;20249;-47
2023/03/18 01:24:24;;;;;;;3.67;2.80;;;10.20;99.90;;;;;;5073663;28;20263;-48
2023/03/18 01:26:50;;;;;;;6.50;3.00;;;10.20;99.90;;;;;;5073650;28;20184;-47
2023/03/18 01:29:16;;;;;;;7.53;3.23;;;10.20;99.90;;;;;;5074199;28;20626;-47
2023/03/18 01:31:42;;;;;;;5.30;3.30;;;10.20;99.90;;;;;;5073552;28;20202;-47
2023/03/18 01:34:08;;;;;;;8.30;3.57;;;10.20;99.90;;;;;;5073568;28;20539;-47
2023/03/18 01:36:33;;;;;;;4.93;3.20;;;10.20;99.90;;;;;;5073241;28;20202;-49
2023/03/18 01:38:59;;;;;;;9.27;3.13;;;10.20;99.90;;;;;;5073430;28;20256;-46
2023/03/18 01:41:25;;;;;;;6.17;3.10;;;10.10;99.90;;;;;;5073198;28;20191;-49
2023/03/18 01:43:53;;;;;;;5.93;2.97;;;10.10;99.90;;;;;;5073171;28;20167;-48
2023/03/18 01:46:45;;;;;;;5.77;2.90;;;10.00;99.90;;;;;;5073422;28;20233;-47
2023/03/18 01:49:35;;;;;;;6.87;2.77;;;10.00;99.90;;;;;;5068921;28;20195;-46
2023/03/18 01:52:05;;;;;;;6.07;2.83;;;9.90;99.90;;;;;;5073338;28;20207;-48
2023/03/18 01:54:34;;;;;;;7.93;3.53;;;9.80;99.90;;;;;;5073090;28;20175;-48
2023/03/18 01:57:01;;;;;;;3.70;2.87;;;9.70;99.90;;;;;;5071865;28;20282;-48
2023/03/18 01:59:31;;;;;;;7.07;2.90;;;9.70;99.90;;;;;;5073338;28;20211;-47
2023/03/18 02:02:02;;;;;;;4.50;2.77;;;9.60;99.90;;;;;;5072985;28;20200;-48
2023/03/18 02:04:35;;;;;;;4.00;2.77;;;9.60;99.90;;;;;;5073198;28;20598;-48
2023/03/18 02:07:01;;;;;;;7.03;3.03;;;9.50;99.90;;;;;;5073269;28;20171;-47
2023/03/18 02:09:28;;;;;;;8.53;3.03;;;9.50;99.90;;;;;;5073048;28;20231;-48
2023/03/18 02:11:54;;;;;;;8.27;2.97;;;9.40;99.90;;;;;;5075206;28;20207;-47
2023/03/18 02:14:22;;;;;;;5.57;2.90;;;9.40;99.90;;;;;;5076655;28;20179;-47
2023/03/18 02:17:00;;;;;;;5.60;2.80;;;9.30;99.90;;;;;;5076548;28;20183;-48
2023/03/18 02:19:47;;;;;;;4.77;2.47;;;9.20;99.90;;;;;;5076827;28;20198;-47
2023/03/18 02:22:40;;;;;;;4.43;2.70;;;9.20;99.90;;;;;;5076697;28;20219;-47
2023/03/18 02:25:23;;;;;;;7.37;2.90;;;9.10;99.90;;;;;;5077550;28;20181;-49
2023/03/18 02:28:02;;;;;;;5.10;2.87;;;9.00;99.90;;;;;;5077752;28;20168;-49
2023/03/18 02:30:43;;;;;;;8.87;2.90;;;9.00;99.90;;;;;;5079173;28;20666;-49
2023/03/18 02:33:10;;;;;;;6.47;2.97;;;8.90;99.90;;;;;;5078721;28;20166;-50
2023/03/18 02:35:36;;;;;;;6.07;2.40;;;8.80;99.90;;;;;;5077585;28;20190;-50
2023/03/18 02:38:03;;;;;;;6.20;2.87;;;8.70;99.90;;;;;;5077452;28;20187;-48
2023/03/18 02:40:35;;;;;;;4.03;2.60;;;8.70;99.90;;;;;;5078060;28;20230;-47
2023/03/18 02:43:31;;;;;;;5.10;2.80;;;8.60;99.90;;;;;;5078152;28;20179;-49
2023/03/18 02:46:00;;;;;;;6.47;2.93;;;8.50;99.90;;;;;;5069827;28;20289;-49
2023/03/18 02:48:32;;;;;;;5.60;3.10;;;8.40;99.90;;;;;;5078380;28;20183;-49
2023/03/18 02:50:57;;;;;;;4.70;2.80;;;8.30;99.90;;;;;;5078257;28;20224;-49
2023/03/18 02:53:23;;;;;;;8.53;2.90;;;8.30;99.90;;;;;;5078547;28;20507;-49
2023/03/18 02:55:49;;;;;;;4.37;3.03;;;8.20;99.90;;;;;;5078168;28;20193;-49
2023/03/18 02:58:15;;;;;;;5.47;2.70;;;8.20;99.90;;;;;;5078054;28;20665;-49
2023/03/18 03:00:41;;;;;;;5.07;2.50;;;8.20;99.90;;;;;;5077166;28;20533;-48
2023/03/18 03:03:06;;;;;;;5.30;2.73;;;8.20;99.90;;;;;;5076781;28;20175;-47
2023/03/18 03:05:33;;;;;;;5.80;2.77;;;8.10;99.90;;;;;;5076925;28;20183;-49
2023/03/18 03:07:59;;;;;;;6.03;2.87;;;8.10;99.90;;;;;;5076923;28;20181;-49
2023/03/18 03:10:25;;;;;;;5.87;3.03;;;8.00;99.90;;;;;;5077191;28;20198;-47
2023/03/18 03:12:51;;;;;;;7.07;3.07;;;8.00;99.90;;;;;;5077094;28;20172;-47
2023/03/18 03:15:17;;;;;;;4.20;2.93;;;7.90;99.90;;;;;;5076720;28;20187;-47
2023/03/18 03:17:42;;;;;;;5.23;2.80;;;7.80;99.90;;;;;;5076728;28;20174;-47
2023/03/18 03:20:09;;;;;;;7.00;2.70;;;7.80;99.90;;;;;;5076349;28;20206;-47
2023/03/18 03:22:35;;;;;;;5.00;2.90;;;7.70;99.90;;;;;;5076827;28;20178;-48
2023/03/18 03:25:01;;;;;;;7.60;3.10;;;7.70;99.90;;;;;;5077056;28;20642;-47
2023/03/18 03:27:27;;;;;;;5.73;2.60;;;7.70;99.90;;;;;;5077282;28;20214;-47
2023/03/18 03:29:54;;;;;;;7.93;2.47;;;7.60;99.90;;;;;;5077006;28;20214;-48
2023/03/18 03:32:20;;;;;;;4.33;2.57;;;7.60;99.90;;;;;;5076481;28;20205;-48
2023/03/18 03:34:46;;;;;;;3.03;2.43;;;7.60;99.90;;;;;;5076782;28;20209;-48
2023/03/18 03:37:12;;;;;;;4.57;2.93;;;7.50;99.90;;;;;;5076460;28;20228;-49
2023/03/18 03:39:39;;;;;;;3.90;3.03;;;7.50;99.90;;;;;;5076336;28;20331;-50
2023/03/18 03:42:04;;;;;;;4.83;2.50;;;7.50;99.90;;;;;;5076506;28;20189;-50
2023/03/18 03:44:30;;;;;;;5.87;3.13;;;7.40;99.90;;;;;;5076794;28;20173;-48
2023/03/18 03:46:56;;;;;;;7.00;2.90;;;7.40;99.90;;;;;;5076471;28;20540;-48
2023/03/18 03:49:22;;;;;;;4.77;3.20;;;7.50;99.90;;;;;;5076528;28;20185;-48
2023/03/18 03:51:47;;;;;;;7.77;3.03;;;7.50;99.90;;;;;;5076843;28;20237;-49
2023/03/18 03:54:14;;;;;;;5.20;2.60;;;7.70;99.90;;;;;;5076814;28;20189;-49
2023/03/18 03:56:40;;;;;;;4.93;2.80;;;7.80;99.90;;;;;;5076473;28;20679;-49
2023/03/18 03:59:06;;;;;;;5.43;2.97;;;8.00;99.90;;;;;;5074902;28;20570;-50
2023/03/18 04:01:31;;;;;;;5.40;2.60;;;8.20;99.90;;;;;;5076597;28;20196;-49
2023/03/18 04:03:57;;;;;;;5.37;2.77;;;8.30;99.90;;;;;;5076962;28;20277;-48
2023/03/18 04:06:22;;;;;;;4.60;2.70;;;8.40;99.90;;;;;;5076411;28;20193;-48
2023/03/18 04:08:48;;;;;;;6.57;3.13;;;8.60;99.90;;;;;;5076397;28;20187;-48
2023/03/18 04:11:14;;;;;;;13.83;3.23;;;8.60;99.90;;;;;;5075929;28;20194;-49
2023/03/18 04:13:40;;;;;;;4.40;2.90;;;8.70;99.90;;;;;;5076462;28;20578;-46
2023/03/18 04:16:06;;;;;;;4.20;2.93;;;8.70;99.90;;;;;;5076469;28;20186;-48
2023/03/18 04:18:32;;;;;;;5.27;2.73;;;8.80;99.90;;;;;;5076282;28;20211;-49
2023/03/18 04:20:58;;;;;;;5.10;2.63;;;8.80;99.90;;;;;;5076133;28;20201;-49
2023/03/18 04:23:23;;;;;;;6.00;2.70;;;8.80;99.90;;;;;;5076044;28;20640;-48
2023/03/18 04:25:49;;;;;;;7.23;2.90;;;8.80;99.90;;;;;;5076093;28;20663;-49
2023/03/18 04:28:15;;;;;;;3.07;2.37;;;8.90;99.90;;;;;;5076015;28;20708;-49
2023/03/18 04:30:40;;;;;;;9.03;2.93;;;8.90;99.90;;;;;;5075698;28;20198;-48
2023/03/18 04:33:06;;;;;;;4.67;2.90;;;9.00;99.90;;;;;;5075416;28;20663;-48
2023/03/18 04:35:32;;;;;;;4.60;2.80;;;9.00;99.90;;;;;;5075843;28;20559;-48
2023/03/18 04:37:59;;;;;;;4.57;2.30;;;9.10;99.90;;;;;;5076780;28;20251;-48
2023/03/18 04:40:25;;;;;;;4.70;2.93;;;9.20;99.90;;;;;;5075974;28;20258;-48
2023/03/18 04:42:51;;;;;;;3.97;2.80;;;9.20;99.90;;;;;;5075863;28;20175;-50
2023/03/18 04:45:17;;;;;;;4.63;2.90;;;9.30;99.90;;;;;;5075916;28;20690;-49
2023/03/18 04:47:44;;;;;;;8.10;3.10;;;9.40;99.90;;;;;;5076360;28;20649;-50
2023/03/18 04:50:11;;;;;;;7.20;3.03;;;9.50;99.90;;;;;;5076359;28;20593;-49
2023/03/18 04:52:41;;;;;;;4.97;2.93;;;9.60;99.90;;;;;;5075965;28;20212;-49
2023/03/18 04:55:08;;;;;;;3.73;2.77;;;9.60;99.90;;;;;;5076869;28;20271;-48
2023/03/18 04:57:37;;;;;;;7.87;2.80;;;9.70;99.90;;;;;;5077100;28;20276;-49
2023/03/18 05:00:10;;;;;;;4.50;3.07;;;9.70;99.90;;;;;;5075859;28;20703;-48
2023/03/18 05:02:36;;;;;;;4.07;2.87;;;9.80;99.90;;;;;;5075964;28;20192;-51
2023/03/18 05:05:02;;;;;;;7.97;3.03;;;9.80;99.90;;;;;;5076124;28;20170;-50
2023/03/18 05:07:28;;;;;;;5.23;2.60;;;9.80;99.90;;;;;;5076187;28;20592;-49
2023/03/18 05:09:54;;;;;;;7.53;3.73;;;9.70;99.90;;;;;;5076179;28;20181;-50
2023/03/18 05:12:20;;;;;;;6.20;3.33;;;9.70;99.90;;;;;;5076147;28;20228;-50
2023/03/18 05:14:45;;;;;;;6.70;3.20;;;9.70;99.90;;;;;;5074971;28;20202;-49
2023/03/18 05:17:14;;;;;;;4.93;3.10;;;9.70;99.90;;;;;;5076253;28;20172;-48
2023/03/18 05:19:45;;;;;;;5.97;3.43;;;9.60;99.90;;;;;;5075409;28;20202;-47
2023/03/18 05:22:12;;;;;;;5.13;2.90;;;9.50;99.90;;;;;;5075504;28;20227;-48
2023/03/18 05:24:39;;;;;;;5.60;3.60;;;9.40;99.90;;;;;;5075349;28;20171;-48
2023/03/18 05:27:05;;;;;;;10.50;3.43;;;9.40;99.90;;;;;;5075295;28;20175;-48
2023/03/18 05:29:31;;;;;;;4.80;3.43;;;9.30;99.90;;;;;;5075071;28;20658;-47
2023/03/18 05:31:57;;;;;;;6.27;3.77;;;9.30;99.90;;;;;;5075279;28;20208;-47
2023/03/18 05:34:23;;;;;;;5.33;3.50;;;9.30;99.90;;;;;;5074887;28;20232;-47
2023/03/18 05:36:49;;;;;;;6.33;3.27;;;9.20;99.90;;;;;;5074709;28;20209;-48
2023/03/18 05:39:15;;;;;;;4.77;3.53;;;9.30;99.90;;;;;;5074843;28;20200;-47
2023/03/18 05:41:40;;;;;;;6.27;3.47;;;9.20;99.90;;;;;;5086562;22;20648;-47
2023/03/18 05:44:06;;;;;;;6.17;3.60;;;9.20;99.90;;;;;;5073299;28;20159;-47
2023/03/18 05:46:32;;;;;;;6.57;3.27;;;9.20;99.90;;;;;;5074829;28;20676;-47
2023/03/18 05:48:58;;;;;;;4.43;3.57;;;9.20;99.90;;;;;;5077208;28;20214;-48
2023/03/18 05:51:25;;;;;;;7.60;3.23;;;9.20;99.90;;;;;;5077203;28;20237;-47
2023/03/18 05:53:50;;;;;;;6.80;3.50;;;9.20;99.90;;;;;;5077493;28;20170;-46
2023/03/18 05:56:17;;;;;;;5.70;3.90;;;9.20;99.90;;;;;;5077130;28;20645;-46
2023/03/18 05:58:42;;;;;;;7.67;3.50;;;9.20;99.90;;;;;;5076960;28;20578;-46
2023/03/18 06:01:08;;;;;;;6.40;3.50;;;9.20;99.90;;;;;;5077014;28;20196;-45
2023/03/18 06:03:34;;;;;;;5.80;3.30;;;9.20;99.90;;;;;;5077039;28;20568;-49
2023/03/18 06:06:00;;;;;;;4.47;3.33;;;9.10;99.90;;;;;;5077245;28;20197;-46
2023/03/18 06:08:26;;;;;;;5.80;3.50;;;9.10;99.90;;;;;;5076935;28;20206;-46
2023/03/18 06:10:53;;;;;;;7.13;3.37;;;9.00;99.90;;;;;;5077122;28;20201;-48
2023/03/18 06:13:19;;;;;;;5.10;3.07;;;9.00;99.90;;;;;;5076872;28;20202;-46
2023/03/18 06:15:45;;;;;;;5.10;3.27;;;9.00;99.90;;;;;;5076722;28;20231;-46
2023/03/18 06:18:12;;;;;;;5.00;3.20;;;9.00;99.90;;;;;;5076847;28;20193;-46
2023/03/18 06:20:37;;;;;;;3.53;2.63;;;9.00;99.90;;;;;;5077363;28;20206;-45
2023/03/18 06:23:04;;;;;;;4.07;3.30;;;9.00;99.90;;;;;;5077517;28;20180;-46
2023/03/18 06:25:30;;;;;;;3.83;3.13;;;9.00;99.90;;;;;;5076829;28;20181;-49
2023/03/18 06:27:55;;;;;;;11.03;3.73;;;9.00;99.90;;;;;;5076724;28;20539;-47
2023/03/18 06:30:21;;;;;;;5.27;3.07;;;9.00;99.90;;;;;;5076680;28;20205;-47
2023/03/18 06:32:47;;;;;;;6.03;3.30;;;9.00;99.90;;;;;;5076495;28;20182;-46
2023/03/18 06:35:14;;;;;;;3.63;3.00;;;9.10;99.90;;;;;;5076465;28;20182;-47
2023/03/18 06:37:40;;;;;;;4.77;3.13;;;9.10;99.90;;;;;;5076602;28;20180;-47
2023/03/18 06:40:07;;;;;;;5.13;3.77;;;9.20;99.90;;;;;;5076417;28;20203;-45
2023/03/18 06:42:33;;;;;;;5.53;3.30;;;9.20;99.90;;;;;;5076189;28;20667;-47
2023/03/18 06:44:58;;;;;;;4.77;3.33;;;9.30;99.90;;;;;;5076275;28;20183;-48
2023/03/18 06:47:24;;;;;;;5.07;3.43;;;9.40;99.90;;;;;;5076668;28;20222;-46
2023/03/18 06:49:50;;;;;;;7.13;3.80;;;9.40;99.90;;;;;;5076469;28;20259;-48
2023/03/18 06:52:17;;;;;;;5.70;4.10;;;9.60;99.90;;;;;;5076487;28;20227;-46
2023/03/18 06:54:44;;;;;;;6.50;4.40;;;9.70;99.90;;;;;;5076671;28;20180;-46
2023/03/18 06:57:10;;;;;;;6.97;4.47;;;9.90;99.90;;;;;;5075693;28;20213;-45
2023/03/18 06:59:38;;;;;;;7.20;4.40;;;10.00;99.90;;;;;;5076113;28;20205;-49
2023/03/18 07:02:04;;;;;;;10.10;4.73;;;10.20;99.90;;;;;;5075857;28;20233;-44
2023/03/18 07:04:30;;;;;;;9.00;4.57;;;10.30;99.90;;;;;;5076245;28;20210;-46
2023/03/18 07:06:56;;;;;;;10.47;5.10;;;10.50;99.90;;;;;;5076171;28;20201;-44
2023/03/18 07:09:23;;;;;;;7.80;4.70;;;10.70;99.90;;;;;;5075810;28;20254;-45
2023/03/18 07:11:49;;;;;;;8.93;5.13;;;10.80;99.90;;;;;;5075625;28;20202;-44
2023/03/18 07:14:14;;;;;;;8.50;4.90;;;10.90;99.90;;;;;;5076191;28;20177;-45
2023/03/18 07:16:40;;;;;;;11.13;4.57;;;10.90;99.90;;;;;;5075671;28;20184;-47
2023/03/18 07:19:06;;;;;;;8.07;4.63;;;11.00;99.90;;;;;;5076696;28;20241;-53
2023/03/18 07:21:32;;;;;;;6.70;3.87;;;11.10;99.90;;;;;;5075467;28;20193;-50
2023/03/18 07:23:58;;;;;;;6.93;4.70;;;11.30;99.90;;;;;;5075483;28;20176;-52
2023/03/18 07:26:24;;;;;;;7.53;3.57;;;11.50;99.90;;;;;;5075655;28;20190;-50
2023/03/18 07:28:50;;;;;;;7.90;4.07;;;11.60;99.90;;;;;;5075360;28;20237;-52
2023/03/18 07:31:16;;;;;;;6.67;4.13;;;11.90;99.90;;;;;;5075240;28;20307;-53
2023/03/18 07:33:42;;;;;;;9.47;3.97;;;12.10;99.90;;;;;;5075468;28;20638;-55
2023/03/18 07:36:07;;;;;;;6.37;4.13;;;12.40;99.90;;;;;;5075256;28;20769;-54
2023/03/18 07:38:33;;;;;;;5.30;4.03;;;12.60;99.90;;;;;;5075464;28;20213;-53
2023/03/18 07:40:59;;;;;;;8.07;4.80;;;12.80;99.90;;;;;;5075336;28;20204;-52
2023/03/18 07:43:25;;;;;;;7.47;4.50;;;13.00;99.90;;;;;;5075058;28;20507;-52
2023/03/18 07:45:51;;;;;;;9.57;4.40;;;13.30;99.90;;;;;;5075288;28;20183;-54
2023/03/18 07:48:16;;;;;;;9.37;4.43;;;13.50;99.90;;;;;;5074996;28;20171;-54
2023/03/18 07:50:42;;;;;;;5.13;3.77;;;13.70;99.90;;;;;;5075125;28;20191;-53
2023/03/18 07:53:08;;;;;;;6.73;3.80;;;13.90;99.90;;;;;;5075133;28;20172;-54
2023/03/18 07:55:34;;;;;;;4.53;3.40;;;14.00;99.90;;;;;;5075134;28;20182;-51
2023/03/18 07:57:59;;;;;;;7.97;3.40;;;14.10;99.90;;;;;;5075042;28;20181;-53
2023/03/18 08:00:26;;;;;;;4.53;3.07;;;14.30;99.90;;;;;;5074770;28;20548;-52
2023/03/18 08:02:51;;;;;;;8.50;3.40;;;14.30;99.90;;;;;;5074979;28;20250;-54
2023/03/18 08:05:18;;;;;;;5.10;3.03;;;14.50;99.90;;;;;;5074589;28;20681;-53
2023/03/18 08:07:44;;;;;;;5.07;3.27;;;14.60;99.90;;;;;;5074922;28;20200;-54
2023/03/18 08:10:11;;;;;;;8.17;3.00;;;14.70;99.90;;;;;;5074195;28;20212;-54
2023/03/18 08:12:37;;;;;;;3.57;3.03;;;14.80;99.90;;;;;;5074595;28;20172;-54
2023/03/18 08:15:03;;;;;;;7.20;3.20;;;14.90;99.90;;;;;;5074759;28;20549;-53
2023/03/18 08:17:29;;;;;;;4.60;3.00;;;15.00;99.90;;;;;;5074714;28;20201;-52
2023/03/18 08:19:55;;;;;;;5.17;2.80;;;15.00;99.90;;;;;;5074487;28;20729;-53
2023/03/18 08:22:21;;;;;;;4.23;2.53;;;15.00;99.90;;;;;;5074287;28;20685;-52
2023/03/18 08:24:47;;;;;;;2.57;2.20;;;15.00;99.90;;;;;;5074992;28;20183;-51
2023/03/18 08:27:12;;;;;;;2.47;2.10;;;15.00;99.90;;;;;;5074844;28;20174;-53
2023/03/18 08:29:38;;;;;;;4.90;1.90;;;14.90;99.90;;;;;;5074426;28;20171;-54
2023/03/18 08:32:04;;;;;;;4.63;2.20;;;14.90;99.90;;;;;;5074423;28;20574;-52
2023/03/18 08:34:29;;;;;;;2.37;2.13;;;14.90;99.90;;;;;;5074825;28;20250;-53
2023/03/18 08:36:55;;;;;;;3.63;2.10;;;15.00;99.90;;;;;;5075063;28;20548;-53
2023/03/18 08:39:21;;;;;;;3.13;2.10;;;15.00;99.90;;;;;;5074548;28;20675;-53
2023/03/18 08:41:47;;;;;;;4.47;2.20;;;15.10;99.90;;;;;;5074067;28;20210;-55
2023/03/18 08:44:14;;;;;;;5.07;2.30;;;15.10;99.90;;;;;;5074349;28;20176;-52
2023/03/18 08:46:40;;;;;;;6.60;2.50;;;15.30;99.90;;;;;;5074591;28;20179;-53
2023/03/18 08:49:06;;;;;;;4.83;2.13;;;15.40;99.90;;;;;;5074081;28;20588;-53
2023/03/18 08:51:33;;;;;;;5.23;2.30;;;15.50;99.90;;;;;;5074302;28;20282;-52
2023/03/18 08:53:59;;;;;;;3.93;2.20;;;15.60;99.90;;;;;;5074336;28;20221;-54
2023/03/18 08:56:25;;;;;;;3.20;2.00;;;15.60;99.90;;;;;;5074121;28;20175;-54
2023/03/18 08:58:50;;;;;;;2.93;1.97;;;15.50;99.90;;;;;;5073930;28;20241;-54
2023/03/18 09:01:18;;;;;;;3.93;2.27;;;15.50;99.90;;;;;;5073777;28;20714;-53
2023/03/18 09:03:44;;;;;;;3.40;1.90;;;15.60;99.90;;;;;;5073861;28;20194;-54
2023/03/18 09:06:10;;;;;;;4.53;2.00;;;15.60;99.90;;;;;;5073679;28;20171;-53
2023/03/18 09:08:37;;;;;;;4.37;2.20;;;15.70;99.90;;;;;;5073575;28;20300;-53
2023/03/18 09:11:03;;;;;;;3.73;2.10;;;15.90;99.90;;;;;;5073755;28;20216;-53
2023/03/18 09:13:29;;;;;;;2.37;1.90;;;16.00;99.90;;;;;;5073569;28;20543;-54
2023/03/18 09:15:54;;;;;;;2.50;1.80;;;16.10;99.90;;;;;;5073488;28;20187;-52
2023/03/18 09:18:21;;;;;;;4.87;2.13;;;16.20;99.90;;;;;;5073645;28;20172;-52
2023/03/18 09:20:47;;;;;;;2.47;1.80;;;16.30;99.90;;;;;;5073493;28;20724;-54
2023/03/18 09:23:17;;;;;;;5.67;2.37;;;16.30;99.90;;;;;;5075536;28;20627;-50
2023/03/18 09:25:44;;;;;;;2.00;1.60;;;16.30;99.90;;;;;;5073674;28;20179;-52
2023/03/18 09:28:10;;;;;;;3.23;1.77;;;16.30;99.90;;;;;;5073477;28;20245;-51
2023/03/18 09:30:36;;;;;;;2.27;1.47;;;16.40;99.90;;;;;;5073682;28;20658;-50
2023/03/18 09:33:04;;;;;;;4.07;1.80;;;16.40;99.90;;;;;;5073764;28;20239;-50
2023/03/18 09:35:30;;;;;;;3.63;1.77;;;16.50;99.90;;;;;;5073564;28;20536;-50
2023/03/18 09:37:56;;;;;;;3.90;1.83;;;16.60;99.90;;;;;;5073677;28;20179;-49
2023/03/18 09:40:25;;;;;;;4.13;1.63;;;16.60;99.90;;;;;;5071916;28;20698;-50
2023/03/18 09:43:35;;;;;;;2.73;1.97;;;16.70;99.90;;;;;;5073057;28;20198;-50
2023/03/18 09:49:53;;;;;;;4.57;1.70;;;16.80;99.90;;;;;;5073364;28;20376;-48
2023/03/18 09:52:27;;;;;;;3.93;1.60;;;17.00;99.90;;;;;;5073505;28;20195;-50
2023/03/18 09:55:28;;;;;;;3.80;1.50;;;17.10;99.90;;;;;;5073529;28;20171;-50
2023/03/18 09:58:00;;;;;;;2.07;1.47;;;17.20;99.90;;;;;;5072097;28;20187;-50
2023/03/18 10:00:35;;;;;;;2.80;1.80;;;17.20;99.90;;;;;;5072955;28;20242;-50
2023/03/18 10:03:42;;;;;;;2.87;1.73;;;17.20;99.90;;;;;;5073666;28;20205;-50
2023/03/18 10:09:44;;;;;;;2.60;1.73;;;17.30;99.90;;;;;;5073190;28;20643;-49
2023/03/18 10:12:25;;;;;;;2.43;1.57;;;17.40;99.90;;;;;;5071776;28;20645;-50
2023/03/18 10:15:00;;;;;;;2.43;1.60;;;17.50;99.90;;;;;;5073477;28;20182;-49
2023/03/18 10:17:41;;;;;;;3.37;1.70;;;17.50;99.90;;;;;;5073117;28;20171;-50
2023/03/18 10:20:18;;;;;;;3.73;1.63;;;17.60;99.90;;;;;;5072962;28;20239;-50
2023/03/18 10:23:01;;;;;;;2.97;1.57;;;17.70;99.90;;;;;;5074814;28;20631;-51
2023/03/18 10:25:55;;;;;;;3.57;1.77;;;17.70;99.90;;;;;;5073244;28;20254;-50
2023/03/18 10:28:55;;;;;;;2.33;1.50;;;17.90;99.90;;;;;;5071328;28;20655;-48
2023/03/18 10:32:02;;;;;;;3.03;1.77;;;18.00;99.90;;;;;;5072791;28;20580;-51
2023/03/18 10:34:39;;;;;;;2.23;1.60;;;18.20;99.90;;;;;;5076812;28;20195;-51
2023/03/18 10:37:29;;;;;;;4.50;1.17;;;18.40;99.90;;;;;;5076526;28;20255;-49
2023/03/18 10:39:55;;;;;;;2.63;1.60;;;18.50;99.90;;;;;;5076388;28;20686;-51
2023/03/18 10:42:26;;;;;;;3.20;1.47;;;18.50;99.90;;;;;;5076292;28;20215;-49
2023/03/18 10:44:54;;;;;;;1.63;1.40;;;18.60;99.90;;;;;;5076598;28;20164;-49
2023/03/18 10:47:33;;;;;;;3.67;1.57;;;18.70;99.90;;;;;;5076152;28;20225;-51
2023/03/18 10:50:17;;;;;;;3.77;1.40;;;18.80;99.90;;;;;;5076718;28;20163;-50
2023/03/18 10:53:06;;;;;;;3.00;1.40;;;18.90;99.90;;;;;;5076227;28;20175;-51
2023/03/18 10:55:41;;;;;;;2.63;1.43;;;19.00;99.90;;;;;;5076197;28;20172;-50
2023/03/18 10:58:15;;;;;;;2.60;1.10;;;19.00;99.90;;;;;;5076608;28;20159;-48
2023/03/18 11:00:42;;;;;;;2.03;1.07;;;19.10;99.90;;;;;;5076595;28;20311;-50
2023/03/18 11:03:32;;;;;;;1.47;1.23;;;19.20;99.90;;;;;;5076170;28;20222;-50
2023/03/18 11:06:00;;;;;;;2.80;1.63;;;19.20;99.90;;;;;;5075161;28;20172;-51
2023/03/18 11:08:38;;;;;;;2.57;1.37;;;19.30;99.90;;;;;;5076269;28;20182;-51
2023/03/18 11:11:20;;;;;;;2.90;1.00;;;19.20;99.90;;;;;;5075991;28;20211;-51
2023/03/18 11:13:48;;;;;;;1.93;1.30;;;19.20;99.90;;;;;;5076007;28;20224;-51
2023/03/18 11:16:29;;;;;;;1.60;1.00;;;19.20;99.90;;;;;;5075636;28;20667;-49
2023/03/18 11:18:55;;;;;;;1.43;0.87;;;19.30;99.90;;;;;;5075904;28;20202;-50
2023/03/18 11:21:22;;;;;;;1.97;0.80;;;19.40;99.90;;;;;;5075511;28;20221;-48
2023/03/18 11:24:09;;;;;;;1.83;0.87;;;19.60;99.90;;;;;;5075671;28;20647;-50
2023/03/18 11:26:55;;;;;;;6.30;1.10;;;19.60;99.90;;;;;;5075446;28;20259;-52
2023/03/18 11:29:34;;;;;;;5.20;1.10;;;19.50;99.90;;;;;;5075768;28;20638;-48
2023/03/18 11:32:00;;;;;;;2.30;1.17;;;19.30;99.90;;;;;;5075635;28;20559;-51
2023/03/18 11:34:31;;;;;;;1.23;0.63;;;19.40;99.90;;;;;;5075374;28;20168;-49
2023/03/18 11:37:07;;;;;;;0.80;0.67;;;19.50;99.90;;;;;;5075203;28;20186;-51
2023/03/18 11:39:40;;;;;;;1.23;0.60;;;19.70;99.90;;;;;;5075432;28;20589;-50
2023/03/18 11:42:20;;;;;;;1.60;0.63;;;19.80;99.90;;;;;;5073986;28;20215;-50
2023/03/18 11:44:48;;;;;;;1.90;0.90;;;19.90;99.90;;;;;;5088386;22;20235;-46
2023/03/18 11:47:29;;;;;;;1.90;0.90;;;20.00;99.90;;;;;;5075322;28;20251;-46
2023/03/18 11:49:56;;;;;;;1.10;0.70;;;20.10;99.90;;;;;;5075431;28;20611;-46
2023/03/18 11:52:40;;;;;;;3.33;0.80;;;20.10;99.90;;;;;;5055531;28;20219;-46
2023/03/18 11:55:09;;;;;;;1.67;0.70;;;20.30;99.90;;;;;;5055346;28;20626;-46
2023/03/18 11:57:38;;;;;;;0.93;0.70;;;20.30;99.90;;;;;;5055246;28;20180;-46
2023/03/18 12:00:25;;;;;;;0.70;0.60;;;20.30;99.90;;;;;;5054959;28;20207;-47
2023/03/18 12:03:32;;;;;;;1.03;0.80;;;20.40;99.90;;;;;;5055353;28;20188;-47
2023/03/18 12:06:21;;;;;;;3.67;0.83;;;20.50;99.90;;;;;;5034550;28;20188;-47
2023/03/18 12:08:55;;;;;;;1.40;0.63;;;20.50;99.90;;;;;;5055132;28;20180;-47
2023/03/18 12:11:38;;;;;;;1.83;0.80;;;20.40;99.90;;;;;;5054932;28;20249;-47
2023/03/18 12:14:30;;;;;;;0.90;0.70;;;20.30;99.90;;;;;;5054794;28;20257;-47
2023/03/18 12:17:02;;;;;;;0.87;0.67;;;20.20;99.90;;;;;;5054642;28;20282;-46
2023/03/18 12:19:43;;;;;;;1.87;0.87;;;20.10;99.90;;;;;;5054628;28;20242;-48
2023/03/18 12:22:20;;;;;;;2.20;0.90;;;20.10;99.90;;;;;;5054637;28;20275;-46
2023/03/18 12:24:53;;;;;;;1.37;0.67;;;20.10;99.90;;;;;;5054570;28;20583;-47
2023/03/18 12:27:44;;;;;;;0.77;0.70;;;20.10;99.90;;;;;;5054568;28;20299;-46
2023/03/18 12:30:31;;;;;;;1.53;0.90;;;20.00;99.90;;;;;;5054533;28;20171;-47
2023/03/18 12:33:10;;;;;;;1.57;0.70;;;19.90;99.90;;;;;;5052960;28;20216;-49
2023/03/18 12:36:00;;;;;;;0.80;0.70;;;19.70;99.90;;;;;;5054148;28;20175;-49
2023/03/18 12:38:31;;;;;;;2.27;0.70;;;19.50;99.90;;;;;;5054295;28;20196;-50
2023/03/18 12:41:16;;;;;;;1.90;0.80;;;19.30;99.90;;;;;;5054259;28;20643;-49
2023/03/18 12:43:56;;;;;;;1.93;1.07;;;19.20;99.90;;;;;;5054368;28;20191;-51
2023/03/18 12:46:47;;;;;;;4.93;0.80;;;19.10;99.90;;;;;;5054264;28;20168;-49
2023/03/18 12:49:36;;;;;;;3.53;0.80;;;19.00;99.90;;;;;;5052897;28;20538;-50
2023/03/18 12:52:14;;;;;;;1.77;0.97;;;19.00;99.90;;;;;;5048065;28;20212;-49
2023/03/18 12:54:48;;;;;;;1.13;0.80;;;18.90;99.90;;;;;;5053191;28;20647;-50
2023/03/18 12:57:30;;;;;;;2.50;0.90;;;18.80;99.90;;;;;;5054067;28;20179;-50
2023/03/18 13:00:00;;;;;;;1.10;0.70;;;18.70;99.90;;;;;;5053862;28;20231;-49
2023/03/18 13:02:44;;;;;;;1.93;1.00;;;18.60;99.90;;;;;;5054039;28;20164;-49
2023/03/18 13:05:47;;;;;;;2.10;1.20;;;18.40;99.90;;;;;;5053970;28;20179;-48
2023/03/18 13:08:18;;;;;;;4.03;1.00;;;18.20;99.90;;;;;;5044912;28;20192;-49
2023/03/18 13:10:50;;;;;;;4.20;1.30;;;17.80;99.90;;;;;;5053749;28;20559;-49
2023/03/18 13:13:15;;;;;;;6.70;1.30;;;17.70;99.90;;;;;;5053827;28;20253;-48